Dalton City, Illinois
Current Conditions -  °F | °C
As of 7:54 PM on Friday 19 Dec 2014 (Local Time) from KDEC Reporting Station
Overcast Overcast  
Wind Chill: 24°   Ceiling: 5000
Heat Index: 29°   Visibility: 8mi
Dew Point: 24°   Wind: 5mph
Humidity: 82%   Direction: 40°NE
Pressure: 30.27"   Gusts: NA
Location:  39.71°N, 88.8°W
Report Text: KDEC 200154Z 04004KT 8SM OVC050 M02/M04 A3027 RMK AO2 SLP259 T10171044
Loading
Personal Weather Stations






























Interactive Weather Map New forecast layout! Learn more

10-Day Weather Forecast

Advertisements
Track Severe Weather on mobile